world map with LIBY marked

LIBY - Location

This information may not be accurate or current and is not valid for navigation or flight planning. No warranty of fitness for any purpose is made or implied.

flag of Italy

Donate via PayPal

Additional information is available on the NEW Great Circle Mapper

Location
City:  Santa Maria di Leuca, Italy
ICAO:LIBY

Details
Latitude:39°49'N (39.817)
Longitude:18°21'E (18.350)
Elevation:367 ft (112 m)

Time
Timezone:UTC+1 (DST+4)
Local Time:

Weather
METAR:LIBY  041355Z 05008KT 7000 SCT012 FEW015TCU 15/13 Q1012 RMK BKN BKN120 QUK 2 QUL 1 SE VIS MAR 7 KM VIS MIN 7000

Related Locations
Nearby:
Farthest:CHT: 11629 mi / 18715 km
Waitangi [Tuuta], CIT, NZ

Find:

   beyond  
but within

Other Information
Maps:
Sources:

  


 


Great Circle Mapper   Great Circle Mapper
Great Circle Mapper FAQ   Great Circle Mapper FAQ
  Karl's Home Page
KLSē   KLSē Home
   GC on Facebook
Airlines of the World   Airlines of the World
Donate via PayPal


Copyright © 2004-2020, Karl L. Swartz. All rights reserved.
All trademarks mentioned herein belong to their respective owners.

Please see credits for attribution and copyright information.

Karl Swartz <karl@kls2.com>
  Powered by FreeBSD
Valid HTML 4.01!
Labeled with ICRA
hCard Microformat
Geo Microformat